Time;durP1;ratioP1;P1;durP2;ratioP2;P2;SDS_P1;SDS_P2;PMS_P1;PMS_P2;Temp;Humidity;BMP_temperature;BMP_pressure;BME280_temperature;BME280_humidity;BME280_pressure;Samples;Min_cycle;Max_cycle;Signal;HPM_P1;HPM_P2
2023/10/16 00:00:30;;;;;;;3.85;1.25;;;17.10;91.30;;;;;;5052117;28;20045;-64
2023/10/16 00:03:02;;;;;;;4.15;1.23;;;17.00;91.50;;;;;;5027559;28;20053;-64
2023/10/16 00:05:38;;;;;;;4.57;1.48;;;17.30;90.50;;;;;;5037526;28;20045;-64
2023/10/16 00:08:07;;;;;;;3.33;1.13;;;17.10;90.30;;;;;;5033578;28;20045;-64
2023/10/16 00:10:36;;;;;;;5.00;1.55;;;17.20;91.50;;;;;;5035907;28;20077;-64
2023/10/16 00:13:10;;;;;;;2.72;1.10;;;17.00;91.50;;;;;;5047891;28;20525;-64
2023/10/16 00:15:49;;;;;;;4.05;1.20;;;17.10;91.50;;;;;;5033691;28;20380;-63
2023/10/16 00:18:18;;;;;;;4.95;1.48;;;17.10;91.50;;;;;;5032317;28;20060;-64
2023/10/16 00:20:48;;;;;;;4.97;1.25;;;17.10;89.40;;;;;;5041433;28;20060;-64
2023/10/16 00:23:13;;;;;;;4.07;1.23;;;17.10;91.30;;;;;;5031970;28;20115;-64
2023/10/16 00:25:43;;;;;;;3.22;1.05;;;17.10;91.50;;;;;;5015548;28;20050;-64
2023/10/16 00:28:09;;;;;;;4.35;1.02;;;16.90;90.50;;;;;;5033375;28;20148;-65
2023/10/16 00:30:36;;;;;;;4.22;1.20;;;;;;;;;;5032833;28;20041;-64
2023/10/16 00:33:04;;;;;;;4.50;1.10;;;;;;;;;;5061698;28;20044;-64
2023/10/16 00:35:31;;;;;;;3.83;0.95;;;;;;;;;;5050919;28;20494;-65
2023/10/16 00:37:58;;;;;;;4.18;1.20;;;;;;;;;;5033846;28;20049;-68
2023/10/16 00:40:32;;;;;;;3.67;1.27;;;16.90;91.40;;;;;;5048069;28;20057;-65
2023/10/16 00:43:11;;;;;;;3.17;1.13;;;17.00;91.50;;;;;;5026139;28;20049;-64
2023/10/16 00:45:47;;;;;;;4.10;1.00;;;17.00;91.50;;;;;;5035533;28;20048;-64
2023/10/16 00:48:16;;;;;;;2.97;1.10;;;16.90;89.40;;;;;;5031292;28;20052;-64
2023/10/16 00:50:48;;;;;;;2.35;1.00;;;17.00;91.50;;;;;;5051411;28;20144;-64
2023/10/16 00:53:14;;;;;;;3.85;1.00;;;;;;;;;;5015351;28;20049;-64
2023/10/16 00:55:40;;;;;;;2.58;1.00;;;17.00;91.50;;;;;;5032961;28;20056;-65
2023/10/16 00:58:06;;;;;;;3.35;0.80;;;;;;;;;;5047125;28;20067;-65
2023/10/16 01:00:37;;;;;;;2.30;0.85;;;17.00;91.50;;;;;;5032255;28;20053;-64
2023/10/16 01:03:06;;;;;;;2.97;0.85;;;17.00;90.10;;;;;;5044572;28;20102;-65
2023/10/16 01:05:33;;;;;;;3.90;1.08;;;17.00;90.10;;;;;;5050767;28;20057;-64
2023/10/16 01:08:00;;;;;;;2.38;1.00;;;17.00;90.50;;;;;;5041909;28;20053;-64
2023/10/16 01:10:28;;;;;;;2.67;0.70;;;17.00;91.50;;;;;;5047845;28;20140;-64
2023/10/16 01:12:57;;;;;;;2.55;1.05;;;;;;;;;;5049920;28;20045;-65
2023/10/16 01:15:23;;;;;;;3.70;1.20;;;16.90;91.50;;;;;;5031981;28;20423;-64
2023/10/16 01:17:50;;;;;;;3.88;0.90;;;;;;;;;;5036515;28;20033;-64
2023/10/16 01:20:18;;;;;;;3.17;1.05;;;16.90;90.10;;;;;;5050416;28;20061;-64
2023/10/16 01:22:45;;;;;;;3.28;1.00;;;17.10;90.50;;;;;;5005306;28;20174;-64
2023/10/16 01:25:11;;;;;;;3.15;1.10;;;;;;;;;;5031334;28;20129;-66
2023/10/16 01:27:38;;;;;;;3.28;0.90;;;17.00;91.50;;;;;;5030684;28;20179;-68
2023/10/16 01:30:07;;;;;;;3.95;1.15;;;16.90;90.60;;;;;;5032447;28;20049;-64
2023/10/16 01:32:33;;;;;;;4.95;1.30;;;16.80;91.50;;;;;;5049448;28;20041;-66
2023/10/16 01:34:59;;;;;;;3.45;0.90;;;;;;;;;;5043976;28;20045;-65
2023/10/16 01:37:29;;;;;;;3.33;0.90;;;17.00;91.50;;;;;;5045040;28;20045;-64
2023/10/16 01:39:56;;;;;;;3.42;0.85;;;17.00;91.50;;;;;;5030725;28;20100;-64
2023/10/16 01:42:23;;;;;;;3.60;1.20;;;17.00;90.60;;;;;;5055649;28;20200;-65
2023/10/16 01:44:51;;;;;;;3.13;0.82;;;17.00;91.50;;;;;;5045522;28;20111;-66
2023/10/16 01:47:17;;;;;;;4.13;1.00;;;;;;;;;;5045335;28;20144;-65
2023/10/16 01:49:44;;;;;;;2.88;0.93;;;17.10;91.30;;;;;;5030777;28;20065;-66
2023/10/16 01:52:13;;;;;;;2.92;0.90;;;;;;;;;;5033288;28;20049;-64
2023/10/16 01:54:48;;;;;;;8.32;1.20;;;17.00;91.60;;;;;;5039439;28;20036;-64
2023/10/16 01:57:15;;;;;;;3.72;0.90;;;;;;;;;;5050598;28;20052;-64
2023/10/16 01:59:42;;;;;;;4.25;0.85;;;16.90;91.50;;;;;;5054296;28;20037;-64
2023/10/16 02:02:09;;;;;;;3.25;1.00;;;;;;;;;;5051513;28;20062;-66
2023/10/16 02:04:40;;;;;;;2.90;0.95;;;16.80;91.50;;;;;;5042208;28;20053;-66
2023/10/16 02:07:06;;;;;;;3.33;1.13;;;;;;;;;;5042053;28;20395;-65
2023/10/16 02:09:36;;;;;;;4.13;0.90;;;17.00;91.20;;;;;;5054666;28;20136;-64
2023/10/16 02:12:05;;;;;;;2.88;1.02;;;17.00;90.40;;;;;;5069820;28;20064;-64
2023/10/16 02:14:33;;;;;;;2.92;0.75;;;16.90;90.50;;;;;;5052261;28;20067;-64
2023/10/16 02:17:03;;;;;;;3.60;1.02;;;;;;;;;;5045141;28;20103;-64
2023/10/16 02:19:29;;;;;;;2.60;0.90;;;16.90;91.60;;;;;;5051320;28;20038;-64
2023/10/16 02:21:55;;;;;;;2.20;0.80;;;16.90;91.60;;;;;;5037756;28;20041;-64
2023/10/16 02:24:21;;;;;;;3.45;0.90;;;;;;;;;;5053265;28;20494;-64
2023/10/16 02:26:56;;;;;;;2.78;0.80;;;16.80;91.60;;;;;;5054127;28;20067;-64
2023/10/16 02:29:23;;;;;;;2.55;1.05;;;17.00;91.60;;;;;;5054256;28;20100;-64
2023/10/16 02:31:50;;;;;;;2.10;0.90;;;;;;;;;;5040693;28;20498;-64
2023/10/16 02:34:22;;;;;;;5.00;1.13;;;16.80;90.50;;;;;;5043609;28;20048;-64
2023/10/16 02:36:50;;;;;;;3.80;1.00;;;16.90;90.30;;;;;;5055245;28;20123;-64
2023/10/16 02:39:35;;;;;;;3.20;0.82;;;;;;;;;;5042577;28;20053;-65
2023/10/16 02:42:06;;;;;;;3.00;1.17;;;17.00;91.60;;;;;;5049366;28;20045;-64
2023/10/16 02:44:33;;;;;;;3.42;0.90;;;16.80;90.50;;;;;;5039080;28;20132;-65
2023/10/16 02:46:59;;;;;;;2.17;0.73;;;;;;;;;;5017593;28;20058;-64
2023/10/16 02:49:26;;;;;;;3.15;0.85;;;;;;;;;;5033702;28;20053;-64
2023/10/16 02:51:52;;;;;;;2.15;0.65;;;;;;;;;;5043310;28;20073;-64
2023/10/16 02:54:18;;;;;;;3.55;0.95;;;;;;;;;;5033106;28;20045;-64
2023/10/16 02:56:45;;;;;;;2.90;0.60;;;;;;;;;;5043308;28;20036;-65
2023/10/16 02:59:11;;;;;;;2.70;0.90;;;;;;;;;;5053511;28;20386;-64
2023/10/16 03:01:38;;;;;;;2.40;0.70;;;;;;;;;;5053297;28;20045;-64
2023/10/16 03:04:05;;;;;;;2.05;0.90;;;16.90;91.70;;;;;;5042906;28;20057;-65
2023/10/16 03:06:39;;;;;;;2.67;0.70;;;16.90;91.70;;;;;;5033475;28;20057;-64
2023/10/16 03:11:57;;;;;;;3.75;0.80;;;;;;;;;;5033227;28;20084;-64
2023/10/16 03:14:22;;;;;;;2.97;0.90;;;16.90;91.70;;;;;;5066031;28;20056;-64
2023/10/16 03:16:48;;;;;;;2.17;0.88;;;16.90;91.70;;;;;;5049524;28;20094;-64
2023/10/16 03:19:16;;;;;;;1.23;0.60;;;;;;;;;;5036543;28;20103;-64
2023/10/16 03:21:45;;;;;;;2.35;0.77;;;16.90;91.70;;;;;;5050934;28;20060;-65
2023/10/16 03:24:12;;;;;;;2.55;0.80;;;;;;;;;;5040857;28;20052;-64
2023/10/16 03:26:42;;;;;;;2.53;0.90;;;;;;;;;;5048108;28;20126;-64
2023/10/16 03:29:08;;;;;;;2.40;1.05;;;;;;;;;;5050914;28;20124;-64
2023/10/16 03:31:36;;;;;;;3.05;0.88;;;;;;;;;;5049131;28;20045;-64
2023/10/16 03:34:03;;;;;;;3.15;0.80;;;;;;;;;;5041417;28;20053;-64
2023/10/16 03:36:31;;;;;;;3.70;0.88;;;16.70;91.60;;;;;;5035323;28;20045;-64
2023/10/16 03:39:03;;;;;;;3.63;1.00;;;;;;;;;;5036614;28;20057;-64
2023/10/16 03:41:32;;;;;;;4.47;1.10;;;;;;;;;;5054265;28;20433;-64
2023/10/16 03:44:13;;;;;;;3.10;0.98;;;;;;;;;;5047524;28;20311;-64
2023/10/16 03:46:39;;;;;;;4.35;0.85;;;16.80;91.70;;;;;;5046864;28;20121;-64
2023/10/16 03:49:07;;;;;;;2.95;0.80;;;16.80;91.70;;;;;;5032946;28;20049;-65
2023/10/16 03:51:34;;;;;;;1.45;0.70;;;;;;;;;;5032596;28;20056;-65
2023/10/16 03:54:02;;;;;;;2.72;0.98;;;;;;;;;;5031607;28;20045;-64
2023/10/16 03:56:30;;;;;;;2.67;0.80;;;;;;;;;;5032498;28;20053;-64
2023/10/16 03:58:57;;;;;;;2.30;0.80;;;;;;;;;;5047168;28;20048;-65
2023/10/16 04:01:29;;;;;;;3.35;0.90;;;16.70;90.60;;;;;;5052207;28;20752;-64
2023/10/16 04:03:58;;;;;;;3.13;0.80;;;;;;;;;;5037177;28;20046;-64
2023/10/16 04:06:25;;;;;;;2.05;0.93;;;16.80;90.40;;;;;;5050470;28;20049;-64
2023/10/16 04:08:52;;;;;;;2.58;0.90;;;16.70;90.40;;;;;;5038449;28;20118;-64
2023/10/16 04:11:19;;;;;;;4.35;0.95;;;16.70;90.80;;;;;;5051203;28;20398;-65
2023/10/16 04:13:47;;;;;;;2.20;0.80;;;16.70;90.80;;;;;;5037048;28;20136;-64
2023/10/16 04:21:43;;;;;;;2.10;0.63;;;16.70;91.60;;;;;;5046178;28;20049;-67
2023/10/16 04:26:57;;;;;;;2.05;0.82;;;;;;;;;;5031845;28;20545;-65
2023/10/16 04:29:33;;;;;;;3.30;1.00;;;16.60;91.60;;;;;;5019603;28;20063;-65
2023/10/16 04:32:19;;;;;;;3.58;1.00;;;16.50;90.60;;;;;;5050161;28;20114;-64
2023/10/16 04:34:54;;;;;;;4.18;1.00;;;;;;;;;;5051977;28;20106;-64
2023/10/16 04:37:31;;;;;;;2.78;0.80;;;;;;;;;;5045779;28;20514;-64
2023/10/16 04:45:24;;;;;;;3.35;0.80;;;16.70;91.00;;;;;;5016957;28;20085;-64
2023/10/16 04:53:09;;;;;;;3.60;1.00;;;16.70;90.60;;;;;;5031461;28;20083;-64
2023/10/16 05:06:15;;;;;;;3.05;0.85;;;16.50;91.70;;;;;;5031487;28;20049;-64
2023/10/16 05:14:19;;;;;;;2.72;0.90;;;16.30;90.50;;;;;;5048960;28;20057;-64
2023/10/16 06:14:09;;;;;;;2.35;0.93;;;;;;;;;;5072240;28;20084;-64
2023/10/16 06:14:17;;;;;;;4.10;1.42;;;16.60;91.70;;;;;;5032772;28;20074;-64
2023/10/16 06:16:45;;;;;;;2.33;0.82;;;16.60;92.00;;;;;;5047406;28;20129;-63
2023/10/16 06:19:14;;;;;;;3.92;0.75;;;16.60;90.80;;;;;;5049026;28;20047;-64
2023/10/16 06:21:59;;;;;;;4.55;0.90;;;16.70;90.20;;;;;;5041599;28;20402;-64
2023/10/16 06:24:25;;;;;;;2.17;0.75;;;16.60;92.00;;;;;;5039159;28;20045;-64
2023/10/16 06:27:08;;;;;;;3.42;0.88;;;16.50;90.40;;;;;;5066910;28;20048;-64
2023/10/16 06:29:35;;;;;;;2.90;0.95;;;16.90;91.20;;;;;;5039193;28;20441;-64
2023/10/16 06:32:20;;;;;;;3.50;1.02;;;16.60;92.00;;;;;;5014256;28;20045;-64
2023/10/16 06:34:49;;;;;;;3.58;1.17;;;16.70;92.00;;;;;;5029950;28;20060;-64
2023/10/16 06:37:18;;;;;;;2.72;0.95;;;16.60;92.00;;;;;;5031220;28;20531;-65
2023/10/16 06:39:45;;;;;;;3.65;0.88;;;16.70;91.10;;;;;;5040654;28;20049;-67
2023/10/16 06:42:20;;;;;;;3.65;1.02;;;;;;;;;;5050240;28;20099;-65
2023/10/16 06:44:56;;;;;;;3.20;1.10;;;16.80;92.20;;;;;;5035444;28;20506;-64
2023/10/16 06:47:35;;;;;;;3.22;1.10;;;16.90;92.20;;;;;;5064475;28;20048;-65
2023/10/16 06:52:49;;;;;;;3.47;1.00;;;16.90;91.80;;;;;;5053834;28;20414;-65
2023/10/16 06:55:16;;;;;;;2.72;1.08;;;;;;;;;;5047885;28;20113;-65
2023/10/16 06:57:46;;;;;;;2.65;0.80;;;17.20;92.20;;;;;;5023521;28;20057;-65
2023/10/16 07:00:31;;;;;;;3.60;1.10;;;17.00;90.60;;;;;;5015700;28;20077;-65
2023/10/16 07:03:01;;;;;;;3.10;1.10;;;17.10;92.10;;;;;;5041873;28;20061;-64
2023/10/16 07:05:43;;;;;;;3.20;1.13;;;;;;;;;;5033313;28;20055;-66
2023/10/16 07:08:10;;;;;;;2.78;0.88;;;17.10;92.10;;;;;;5051895;28;20045;-65
2023/10/16 07:10:40;;;;;;;2.28;0.85;;;17.00;90.90;;;;;;5039049;28;20081;-64
2023/10/16 07:13:09;;;;;;;2.65;0.80;;;17.00;90.80;;;;;;5048251;28;20140;-64
2023/10/16 07:15:36;;;;;;;4.57;1.27;;;;;;;;;;5026609;28;20050;-64
2023/10/16 07:18:05;;;;;;;3.85;1.20;;;;;;;;;;5033268;28;20064;-64
2023/10/16 07:20:33;;;;;;;3.40;1.00;;;;;;;;;;5044117;28;20160;-65
2023/10/16 07:22:59;;;;;;;3.13;1.17;;;;;;;;;;5048470;28;20053;-66
2023/10/16 07:25:37;;;;;;;4.18;1.13;;;17.10;92.00;;;;;;5050881;28;20135;-66
2023/10/16 07:28:15;;;;;;;2.95;1.02;;;;;;;;;;5009753;28;20454;-66
2023/10/16 07:30:42;;;;;;;2.83;1.05;;;;;;;;;;5044144;28;20045;-66
2023/10/16 07:33:20;;;;;;;4.50;1.23;;;17.10;91.80;;;;;;5050075;28;20045;-63
2023/10/16 07:35:50;;;;;;;3.40;1.17;;;17.20;90.90;;;;;;5036450;28;20037;-67
2023/10/16 07:38:20;;;;;;;3.58;1.17;;;17.10;91.10;;;;;;5039985;28;20495;-66
2023/10/16 07:40:51;;;;;;;3.70;1.27;;;17.10;91.90;;;;;;5048946;28;20038;-67
2023/10/16 07:43:18;;;;;;;3.35;0.90;;;17.20;90.60;;;;;;5045431;28;20053;-66
2023/10/16 07:45:45;;;;;;;2.42;1.02;;;17.20;91.90;;;;;;5034688;28;20049;-68
2023/10/16 07:48:27;;;;;;;2.50;1.10;;;17.30;92.00;;;;;;5032645;28;20053;-71
2023/10/16 07:50:54;;;;;;;2.63;1.15;;;;;;;;;;5049007;28;20052;-65
2023/10/16 07:53:19;;;;;;;2.70;0.98;;;17.40;92.00;;;;;;5051770;28;20059;-68
2023/10/16 07:55:52;;;;;;;3.22;1.17;;;;;;;;;;5041542;28;20128;-65
2023/10/16 07:58:23;;;;;;;3.70;1.17;;;;;;;;;;5038215;28;20049;-66
2023/10/16 08:03:36;;;;;;;5.18;1.20;;;17.10;91.10;;;;;;5032560;28;20546;-65
2023/10/16 08:06:05;;;;;;;4.03;1.20;;;17.30;91.40;;;;;;5017481;28;20060;-65
2023/10/16 08:08:36;;;;;;;4.53;1.20;;;17.50;91.50;;;;;;5031282;28;20447;-65
2023/10/16 08:11:18;;;;;;;4.88;1.20;;;17.60;90.20;;;;;;5034865;28;20445;-67
2023/10/16 08:13:48;;;;;;;6.03;1.60;;;17.60;90.80;;;;;;5047503;28;20067;-65
2023/10/16 08:16:24;;;;;;;3.90;1.30;;;17.70;90.20;;;;;;5035830;28;20057;-66
2023/10/16 08:18:52;;;;;;;4.53;1.42;;;17.90;90.90;;;;;;5043516;28;20487;-66
2023/10/16 08:21:25;;;;;;;3.45;1.23;;;17.70;91.70;;;;;;5049191;28;20087;-65
2023/10/16 08:23:58;;;;;;;4.38;1.20;;;17.70;90.60;;;;;;5032036;28;20542;-65
2023/10/16 08:26:29;;;;;;;;;;;18.00;90.70;;;;;;5033765;28;20085;-67
2023/10/16 08:31:47;;;;;;;4.40;1.13;;;17.70;91.70;;;;;;5048186;28;20053;-66
2023/10/16 08:34:19;;;;;;;3.47;1.08;;;17.90;89.90;;;;;;5044052;28;20037;-68
2023/10/16 08:36:52;;;;;;;3.30;1.13;;;17.70;91.10;;;;;;5036352;28;20392;-65
2023/10/16 08:39:19;;;;;;;3.35;1.42;;;17.80;91.70;;;;;;5033812;28;20268;-65
2023/10/16 08:41:51;;;;;;;4.30;1.40;;;17.80;91.60;;;;;;5015468;28;20114;-65
2023/10/16 08:44:18;;;;;;;3.92;1.50;;;17.80;91.70;;;;;;5037490;28;20502;-65
2023/10/16 08:49:22;;;;;;;4.13;1.55;;;;;;;;;;5031537;28;20057;-65
2023/10/16 08:52:10;;;;;;;4.07;1.40;;;17.80;90.00;;;;;;5048747;28;20051;-66
2023/10/16 08:57:22;;;;;;;4.82;1.40;;;17.70;91.70;;;;;;5017940;28;20053;-65
2023/10/16 08:59:54;;;;;;;4.57;1.50;;;17.80;90.70;;;;;;5032357;28;20490;-65
2023/10/16 09:02:21;;;;;;;3.80;1.17;;;;;;;;;;5016582;28;20103;-66
2023/10/16 09:04:50;;;;;;;3.35;1.30;;;17.80;91.70;;;;;;5045972;28;20127;-65
2023/10/16 09:07:16;;;;;;;4.65;1.35;;;;;;;;;;5031525;28;20398;-65
2023/10/16 09:09:44;;;;;;;4.10;1.40;;;17.90;91.80;;;;;;5049930;28;20053;-66
2023/10/16 09:12:10;;;;;;;4.03;1.20;;;;;;;;;;5048163;28;20120;-64
2023/10/16 09:14:39;;;;;;;3.70;1.13;;;;;;;;;;5030707;28;20052;-67
2023/10/16 09:17:06;;;;;;;4.50;1.48;;;18.00;91.80;;;;;;5046704;28;20044;-67
2023/10/16 09:19:45;;;;;;;4.50;1.73;;;17.90;91.70;;;;;;5030666;28;20045;-65
2023/10/16 09:22:13;;;;;;;4.05;1.45;;;;;;;;;;5035253;28;20216;-66
2023/10/16 09:24:45;;;;;;;4.47;1.27;;;18.00;91.40;;;;;;5044021;28;20115;-65
2023/10/16 09:27:22;;;;;;;4.18;1.63;;;18.00;91.80;;;;;;5039833;28;20080;-66
2023/10/16 09:29:54;;;;;;;5.50;1.63;;;18.10;91.80;;;;;;5025870;28;20463;-65
2023/10/16 09:32:27;;;;;;;4.38;1.08;;;18.10;91.80;;;;;;5050033;28;20044;-65
2023/10/16 09:34:53;;;;;;;3.95;1.48;;;18.10;91.70;;;;;;5042689;28;20454;-65
2023/10/16 09:37:29;;;;;;;3.60;1.30;;;18.20;91.80;;;;;;5030389;28;20060;-65
2023/10/16 09:40:00;;;;;;;3.70;1.40;;;17.90;91.60;;;;;;5052077;28;20044;-68
2023/10/16 09:42:27;;;;;;;4.53;1.42;;;18.00;91.70;;;;;;5051061;28;20462;-66
2023/10/16 09:45:09;;;;;;;3.90;1.27;;;18.00;90.70;;;;;;5021406;28;20402;-66
2023/10/16 09:47:48;;;;;;;4.25;1.23;;;18.20;91.80;;;;;;5031228;28;20368;-66
2023/10/16 09:50:18;;;;;;;4.85;1.70;;;;;;;;;;5017546;28;20046;-65
2023/10/16 09:52:48;;;;;;;4.00;1.50;;;;;;;;;;5059937;28;20509;-65
2023/10/16 09:55:15;;;;;;;5.07;1.40;;;18.00;91.80;;;;;;5048641;28;20043;-66
2023/10/16 09:57:54;;;;;;;4.57;1.42;;;18.00;90.30;;;;;;5030357;28;20415;-65
2023/10/16 10:00:32;;;;;;;5.10;1.38;;;18.20;92.00;;;;;;5041904;28;20117;-68
2023/10/16 10:03:12;;;;;;;6.95;1.50;;;18.20;91.80;;;;;;5037049;28;20053;-65
2023/10/16 10:08:38;;;;;;;5.18;1.50;;;18.00;91.80;;;;;;5016048;28;20089;-65
2023/10/16 10:11:17;;;;;;;4.55;1.40;;;18.10;91.70;;;;;;5031019;28;20436;-65
2023/10/16 10:14:30;;;;;;;5.55;1.48;;;18.10;91.90;;;;;;5030543;28;20049;-66
2023/10/16 10:16:39;;;;;;;;;;;18.30;90.90;;;;;;5035697;28;20046;-66
2023/10/16 10:19:16;;;;;;;4.38;1.30;;;18.10;91.50;;;;;;5059979;28;19979;-66
2023/10/16 10:21:44;;;;;;;6.43;1.67;;;18.10;91.70;;;;;;5036653;28;20102;-66
2023/10/16 10:24:15;;;;;;;7.22;1.42;;;18.30;91.70;;;;;;5037803;28;20064;-66
2023/10/16 10:26:48;;;;;;;4.10;1.40;;;18.20;90.30;;;;;;5033091;28;20065;-65
2023/10/16 10:29:16;;;;;;;5.63;1.77;;;;;;;;;;5036347;28;20486;-66
2023/10/16 10:31:46;;;;;;;5.57;1.52;;;18.30;91.50;;;;;;5047383;28;20081;-66
2023/10/16 10:34:23;;;;;;;5.97;1.50;;;17.90;89.10;;;;;;5034327;28;20144;-67
2023/10/16 10:36:49;;;;;;;5.85;1.40;;;;;;;;;;5039308;28;20080;-66
2023/10/16 10:39:21;;;;;;;3.10;1.20;;;18.30;90.90;;;;;;5052678;28;20056;-67
2023/10/16 10:41:48;;;;;;;4.07;1.35;;;;;;;;;;5048620;28;20048;-67
2023/10/16 10:44:15;;;;;;;4.00;1.55;;;18.40;89.80;;;;;;5044479;28;20076;-67
2023/10/16 10:46:44;;;;;;;6.00;1.40;;;;;;;;;;5010179;28;20407;-66
2023/10/16 10:49:15;;;;;;;6.05;1.40;;;;;;;;;;5013926;28;20048;-67
2023/10/16 10:51:45;;;;;;;7.03;1.80;;;18.20;90.20;;;;;;5035519;28;20423;-68
2023/10/16 10:54:14;;;;;;;7.28;1.55;;;18.00;91.30;;;;;;5058026;28;20407;-66
2023/10/16 10:56:51;;;;;;;3.70;1.27;;;18.10;91.40;;;;;;5048378;28;20080;-65
2023/10/16 10:59:41;;;;;;;4.88;1.00;;;18.10;91.30;;;;;;5027787;28;20159;-66
2023/10/16 11:03:09;;;;;;;4.32;1.58;;;18.20;91.50;;;;;;5035995;28;20457;-66
2023/10/16 11:04:58;;;;;;;4.75;1.35;;;18.10;91.50;;;;;;5037247;28;20046;-66
2023/10/16 11:07:39;;;;;;;4.43;1.30;;;18.10;91.50;;;;;;5051802;28;20103;-66
2023/10/16 11:10:06;;;;;;;3.90;1.40;;;18.20;91.60;;;;;;5036128;28;20111;-65
2023/10/16 11:12:32;;;;;;;4.90;1.40;;;;;;;;;;5022293;28;20053;-65
2023/10/16 11:15:01;;;;;;;4.68;1.42;;;;;;;;;;5037028;28;20065;-65
2023/10/16 11:17:34;;;;;;;4.95;1.23;;;18.20;91.70;;;;;;5049180;28;20472;-66
2023/10/16 11:22:44;;;;;;;5.15;1.52;;;18.20;91.70;;;;;;5033011;28;20057;-69
2023/10/16 11:25:13;;;;;;;4.80;1.50;;;18.50;91.90;;;;;;5033363;28;20045;-65
2023/10/16 11:27:42;;;;;;;4.50;1.38;;;18.50;91.90;;;;;;5033439;28;20400;-66
2023/10/16 11:30:18;;;;;;;6.63;1.55;;;;;;;;;;5033507;28;20053;-66
2023/10/16 11:32:47;;;;;;;3.95;1.17;;;18.40;90.40;;;;;;5047117;28;20132;-67
2023/10/16 11:35:15;;;;;;;4.57;1.10;;;;;;;;;;5035485;28;20045;-67
2023/10/16 11:37:55;;;;;;;5.13;1.42;;;18.60;91.90;;;;;;5040971;28;20148;-66
2023/10/16 11:40:31;;;;;;;3.28;1.15;;;18.70;90.50;;;;;;5036227;28;20635;-66
2023/10/16 11:42:58;;;;;;;5.00;1.50;;;18.60;91.80;;;;;;5022787;28;20598;-67
2023/10/16 11:45:24;;;;;;;3.20;1.20;;;;;;;;;;5032254;28;20071;-67
2023/10/16 11:48:20;;;;;;;5.03;1.50;;;19.00;91.80;;;;;;5021510;28;20045;-66
2023/10/16 11:50:50;;;;;;;5.25;1.70;;;18.80;91.80;;;;;;5052247;28;20045;-65
2023/10/16 11:53:23;;;;;;;3.88;1.40;;;19.10;91.80;;;;;;5046460;28;20152;-66
2023/10/16 11:55:52;;;;;;;;;;;19.10;91.00;;;;;;5035151;28;20052;-71
2023/10/16 11:58:18;;;;;;;4.30;1.02;;;19.20;91.60;;;;;;5045624;28;19921;-66
2023/10/16 12:00:54;;;;;;;3.78;1.25;;;19.20;91.50;;;;;;5016030;28;20045;-66
2023/10/16 12:03:23;;;;;;;5.15;1.35;;;19.30;91.50;;;;;;5034774;28;20124;-66
2023/10/16 12:05:50;;;;;;;4.38;1.40;;;19.10;90.30;;;;;;5032641;28;20434;-65
2023/10/16 12:08:18;;;;;;;4.85;1.35;;;;;;;;;;5041508;28;20519;-66
2023/10/16 12:10:46;;;;;;;4.57;1.35;;;18.70;90.40;;;;;;5051970;28;20053;-65
2023/10/16 12:13:13;;;;;;;4.43;1.17;;;;;;;;;;5048437;28;20506;-67
2023/10/16 12:15:43;;;;;;;3.28;1.10;;;19.00;91.20;;;;;;5031145;28;20060;-65
2023/10/16 12:18:12;;;;;;;7.93;1.38;;;19.00;90.90;;;;;;5048749;28;20053;-65
2023/10/16 12:20:38;;;;;;;7.82;1.90;;;;;;;;;;5053410;28;20402;-67
2023/10/16 12:23:06;;;;;;;8.23;1.52;;;;;;;;;;5049955;28;20059;-66
2023/10/16 12:25:33;;;;;;;9.60;2.03;;;;;;;;;;5033246;28;20172;-66
2023/10/16 12:27:59;;;;;;;13.20;1.95;;;;;;;;;;5047546;28;20057;-66
2023/10/16 12:30:27;;;;;;;13.93;2.05;;;;;;;;;;5033221;28;20068;-65
2023/10/16 12:32:54;;;;;;;11.77;2.10;;;;;;;;;;5038872;28;20178;-66
2023/10/16 12:35:22;;;;;;;15.35;2.70;;;;;;;;;;5051704;28;20060;-67
2023/10/16 12:37:49;;;;;;;13.50;2.35;;;19.20;90.70;;;;;;5046116;28;20044;-65
2023/10/16 12:40:28;;;;;;;12.82;2.40;;;;;;;;;;5035192;28;20064;-66
2023/10/16 12:42:55;;;;;;;14.05;2.50;;;19.00;88.30;;;;;;5041174;28;20056;-66
2023/10/16 12:45:24;;;;;;;12.95;1.95;;;18.90;90.60;;;;;;5038845;28;20443;-66
2023/10/16 12:47:51;;;;;;;14.90;3.33;;;;;;;;;;5016787;28;20081;-67
2023/10/16 12:50:18;;;;;;;12.75;2.55;;;18.70;90.60;;;;;;5042536;28;20128;-65
2023/10/16 12:52:44;;;;;;;14.18;2.35;;;18.70;88.50;;;;;;5033213;28;20048;-66
2023/10/16 12:55:11;;;;;;;15.43;2.35;;;18.60;89.00;;;;;;5020886;28;20052;-67
2023/10/16 12:57:39;;;;;;;13.80;2.38;;;;;;;;;;5033602;28;20052;-65
2023/10/16 13:00:15;;;;;;;13.77;2.22;;;18.70;88.50;;;;;;5036789;28;20052;-66
2023/10/16 13:02:45;;;;;;;14.27;2.47;;;;;;;;;;5046422;28;20057;-66
2023/10/16 13:05:30;;;;;;;13.18;2.40;;;18.50;90.50;;;;;;5042045;28;20103;-66
2023/10/16 13:07:57;;;;;;;12.40;2.40;;;;;;;;;;5039917;28;20542;-66
2023/10/16 13:10:26;;;;;;;18.38;2.80;;;;;;;;;;5045282;28;20103;-66
2023/10/16 13:12:53;;;;;;;18.52;3.45;;;;;;;;;;5042457;28;20045;-67
2023/10/16 13:15:24;;;;;;;17.23;2.53;;;18.20;90.50;;;;;;5037996;28;20060;-75
2023/10/16 13:17:52;;;;;;;13.23;2.22;;;18.10;90.50;;;;;;5016401;28;20052;-65
2023/10/16 13:20:18;;;;;;;10.55;2.25;;;18.30;90.60;;;;;;5047985;28;20088;-66
2023/10/16 13:22:52;;;;;;;12.65;1.90;;;18.30;89.50;;;;;;5030667;28;20096;-67
2023/10/16 13:25:34;;;;;;;9.05;1.98;;;18.10;90.60;;;;;;5031174;28;20555;-68
2023/10/16 13:28:00;;;;;;;7.18;1.92;;;;;;;;;;5051072;28;20445;-71
2023/10/16 13:30:27;;;;;;;13.60;2.13;;;18.10;89.40;;;;;;5029951;28;20487;-65
2023/10/16 13:32:54;;;;;;;7.15;1.40;;;;;;;;;;5030742;28;20056;-69
2023/10/16 13:35:20;;;;;;;9.68;2.13;;;18.20;90.60;;;;;;5031610;28;20061;-67
2023/10/16 13:37:47;;;;;;;6.95;1.65;;;18.10;88.00;;;;;;5049673;28;20052;-67
2023/10/16 13:40:20;;;;;;;6.28;1.92;;;18.30;89.00;;;;;;5051002;28;20061;-71
2023/10/16 13:42:50;;;;;;;8.48;1.80;;;18.20;90.70;;;;;;5050495;28;20120;-74
2023/10/16 13:45:17;;;;;;;5.85;1.50;;;18.20;90.70;;;;;;5033153;28;20103;-66
2023/10/16 13:47:43;;;;;;;6.57;1.70;;;18.00;88.90;;;;;;5030538;28;20045;-65
2023/10/16 13:50:14;;;;;;;7.05;1.40;;;18.20;90.60;;;;;;5032417;28;20049;-64
2023/10/16 13:52:46;;;;;;;5.25;1.60;;;18.30;90.70;;;;;;5051038;28;20084;-68
2023/10/16 13:55:12;;;;;;;8.30;1.60;;;;;;;;;;5063381;28;20049;-74
2023/10/16 13:57:42;;;;;;;8.02;1.50;;;18.20;88.90;;;;;;5053388;28;20129;-67
2023/10/16 14:00:18;;;;;;;7.40;1.55;;;18.30;90.50;;;;;;5053189;28;20463;-66
2023/10/16 14:02:45;;;;;;;6.30;1.30;;;18.10;88.80;;;;;;5034719;28;20491;-70
2023/10/16 14:05:13;;;;;;;7.05;1.63;;;18.20;90.40;;;;;;5045680;28;20130;-68
2023/10/16 14:07:39;;;;;;;7.05;1.88;;;;;;;;;;5049890;28;20450;-70
2023/10/16 14:10:13;;;;;;;5.50;1.30;;;;;;;;;;5036150;28;20053;-72
2023/10/16 14:12:41;;;;;;;5.43;1.35;;;;;;;;;;5043783;28;20059;-74
2023/10/16 14:15:15;;;;;;;6.90;1.83;;;18.20;90.60;;;;;;5041262;28;20057;-68
2023/10/16 14:17:45;;;;;;;5.55;1.40;;;18.00;88.10;;;;;;5037117;28;20164;-70
2023/10/16 14:20:11;;;;;;;6.90;1.35;;;18.10;90.50;;;;;;5051586;28;20422;-67
2023/10/16 14:22:47;;;;;;;13.63;1.70;;;18.00;90.50;;;;;;5030618;28;20132;-66
2023/10/16 14:25:15;;;;;;;22.63;2.83;;;18.00;90.60;;;;;;5034280;28;20057;-70
2023/10/16 14:27:40;;;;;;;17.30;2.75;;;18.10;90.60;;;;;;5043644;28;20079;-67
2023/10/16 14:30:08;;;;;;;17.90;2.67;;;18.00;90.60;;;;;;5034279;28;20073;-71
2023/10/16 14:32:35;;;;;;;17.48;2.78;;;18.00;90.70;;;;;;5038686;28;20124;-68
2023/10/16 14:35:00;;;;;;;27.35;3.53;;;18.20;90.70;;;;;;5036095;28;20056;-66
2023/10/16 14:37:27;;;;;;;30.85;4.25;;;;;;;;;;5040995;28;20094;-68
2023/10/16 14:39:56;;;;;;;52.20;5.82;;;18.20;90.80;;;;;;5053964;28;20041;-67
2023/10/16 14:42:23;;;;;;;65.30;6.30;;;18.00;90.70;;;;;;5054111;28;20089;-70
2023/10/16 14:44:49;;;;;;;49.55;6.13;;;18.10;90.80;;;;;;5053941;28;20081;-68
2023/10/16 14:47:16;;;;;;;41.70;5.40;;;;;;;;;;5035026;28;20049;-68
2023/10/16 14:49:42;;;;;;;64.60;8.50;;;18.20;90.80;;;;;;5036591;28;20084;-68
2023/10/16 14:52:08;;;;;;;61.70;7.13;;;;;;;;;;5053937;28;20102;-69
2023/10/16 14:54:35;;;;;;;46.92;6.95;;;18.10;90.70;;;;;;5037008;28;20049;-69
2023/10/16 14:57:01;;;;;;;36.53;5.78;;;;;;;;;;5050200;28;20045;-69
2023/10/16 14:59:27;;;;;;;47.38;5.35;;;;;;;;;;5053493;28;20049;-68
2023/10/16 15:01:58;;;;;;;220.13;37.50;;;17.90;90.70;;;;;;5053667;28;20075;-66
2023/10/16 15:04:24;;;;;;;662.63;129.15;;;18.00;90.70;;;;;;5021281;28;20059;-67
2023/10/16 15:06:50;;;;;;;844.95;183.27;;;18.10;90.80;;;;;;5030956;28;20050;-69
2023/10/16 15:09:16;;;;;;;602.72;121.80;;;18.00;90.80;;;;;;5045474;28;20042;-67
2023/10/16 15:11:49;;;;;;;408.83;73.05;;;18.10;89.60;;;;;;5017036;28;20053;-66
2023/10/16 15:14:15;;;;;;;315.55;55.67;;;17.70;90.70;;;;;;5036963;28;20064;-70
2023/10/16 15:16:44;;;;;;;195.60;36.40;;;17.90;90.80;;;;;;5039961;28;20156;-67
2023/10/16 15:19:10;;;;;;;116.07;22.88;;;17.80;90.80;;;;;;5051686;28;20049;-64
2023/10/16 15:21:38;;;;;;;37.55;8.45;;;17.60;90.70;;;;;;5051527;28;20117;-67
2023/10/16 15:24:04;;;;;;;89.05;18.20;;;17.60;90.80;;;;;;5043639;28;20045;-65